sensor_id;sensor_type;location;lat;lon;timestamp;temperature;humidity
65239;SHT30;51827;51.186;6.926;2023-12-20T00:00:40;19.43;57.41
65239;SHT30;51827;51.186;6.926;2023-12-20T00:01:40;19.46;57.44
65239;SHT30;51827;51.186;6.926;2023-12-20T00:02:41;19.46;57.40
65239;SHT30;51827;51.186;6.926;2023-12-20T00:03:41;19.46;57.43
65239;SHT30;51827;51.186;6.926;2023-12-20T00:04:41;19.47;57.42
65239;SHT30;51827;51.186;6.926;2023-12-20T00:05:41;19.46;57.38
65239;SHT30;51827;51.186;6.926;2023-12-20T00:06:42;19.45;57.43
65239;SHT30;51827;51.186;6.926;2023-12-20T00:07:42;19.45;57.42
65239;SHT30;51827;51.186;6.926;2023-12-20T00:08:42;19.45;57.42
65239;SHT30;51827;51.186;6.926;2023-12-20T00:09:42;19.46;57.42
65239;SHT30;51827;51.186;6.926;2023-12-20T00:10:43;19.46;57.44
65239;SHT30;51827;51.186;6.926;2023-12-20T00:11:43;19.46;57.42
65239;SHT30;51827;51.186;6.926;2023-12-20T00:12:44;19.45;57.42
65239;SHT30;51827;51.186;6.926;2023-12-20T00:13:44;19.45;57.45
65239;SHT30;51827;51.186;6.926;2023-12-20T00:14:44;19.45;57.42
65239;SHT30;51827;51.186;6.926;2023-12-20T00:15:44;19.46;57.43
65239;SHT30;51827;51.186;6.926;2023-12-20T00:16:45;19.45;57.48
65239;SHT30;51827;51.186;6.926;2023-12-20T00:17:45;19.46;57.42
65239;SHT30;51827;51.186;6.926;2023-12-20T00:18:45;19.46;57.48
65239;SHT30;51827;51.186;6.926;2023-12-20T00:19:45;19.46;57.47
65239;SHT30;51827;51.186;6.926;2023-12-20T00:20:46;19.45;57.47
65239;SHT30;51827;51.186;6.926;2023-12-20T00:21:46;19.46;57.48
65239;SHT30;51827;51.186;6.926;2023-12-20T00:22:46;19.45;57.44
65239;SHT30;51827;51.186;6.926;2023-12-20T00:23:46;19.45;57.45
65239;SHT30;51827;51.186;6.926;2023-12-20T00:24:47;19.47;57.44
65239;SHT30;51827;51.186;6.926;2023-12-20T00:25:47;19.45;57.42
65239;SHT30;51827;51.186;6.926;2023-12-20T00:26:47;19.47;57.45
65239;SHT30;51827;51.186;6.926;2023-12-20T00:27:47;19.45;57.46
65239;SHT30;51827;51.186;6.926;2023-12-20T00:28:48;19.46;57.45
65239;SHT30;51827;51.186;6.926;2023-12-20T00:29:48;19.47;57.48
65239;SHT30;51827;51.186;6.926;2023-12-20T00:30:48;19.46;57.48
65239;SHT30;51827;51.186;6.926;2023-12-20T00:31:48;19.47;57.46
65239;SHT30;51827;51.186;6.926;2023-12-20T00:32:48;19.46;57.45
65239;SHT30;51827;51.186;6.926;2023-12-20T00:33:49;19.45;57.45
65239;SHT30;51827;51.186;6.926;2023-12-20T00:34:49;19.46;57.45
65239;SHT30;51827;51.186;6.926;2023-12-20T00:35:49;19.47;57.45
65239;SHT30;51827;51.186;6.926;2023-12-20T00:36:49;19.46;57.45
65239;SHT30;51827;51.186;6.926;2023-12-20T00:37:50;19.46;57.46
65239;SHT30;51827;51.186;6.926;2023-12-20T00:38:50;19.46;57.51
65239;SHT30;51827;51.186;6.926;2023-12-20T00:39:50;19.47;57.49
65239;SHT30;51827;51.186;6.926;2023-12-20T00:40:50;19.47;57.43
65239;SHT30;51827;51.186;6.926;2023-12-20T00:41:51;19.46;57.46
65239;SHT30;51827;51.186;6.926;2023-12-20T00:42:51;19.46;57.44
65239;SHT30;51827;51.186;6.926;2023-12-20T00:43:51;19.46;57.46
65239;SHT30;51827;51.186;6.926;2023-12-20T00:44:51;19.46;57.45
65239;SHT30;51827;51.186;6.926;2023-12-20T00:45:52;19.45;57.43
65239;SHT30;51827;51.186;6.926;2023-12-20T00:46:52;19.47;57.47
65239;SHT30;51827;51.186;6.926;2023-12-20T00:47:52;19.47;57.49
65239;SHT30;51827;51.186;6.926;2023-12-20T00:48:52;19.46;57.46
65239;SHT30;51827;51.186;6.926;2023-12-20T00:49:52;19.47;57.46
65239;SHT30;51827;51.186;6.926;2023-12-20T00:50:53;19.45;57.46
65239;SHT30;51827;51.186;6.926;2023-12-20T00:51:53;19.45;57.49
65239;SHT30;51827;51.186;6.926;2023-12-20T00:52:53;19.45;57.49
65239;SHT30;51827;51.186;6.926;2023-12-20T00:53:53;19.46;57.51
65239;SHT30;51827;51.186;6.926;2023-12-20T00:54:54;19.49;57.47
65239;SHT30;51827;51.186;6.926;2023-12-20T00:55:54;19.49;57.48
65239;SHT30;51827;51.186;6.926;2023-12-20T00:56:54;19.47;57.50
65239;SHT30;51827;51.186;6.926;2023-12-20T00:57:54;19.46;57.49
65239;SHT30;51827;51.186;6.926;2023-12-20T00:58:55;19.47;57.54
65239;SHT30;51827;51.186;6.926;2023-12-20T00:59:55;19.47;57.51
65239;SHT30;51827;51.186;6.926;2023-12-20T01:00:55;19.49;57.53
65239;SHT30;51827;51.186;6.926;2023-12-20T01:01:55;19.45;57.52
65239;SHT30;51827;51.186;6.926;2023-12-20T01:02:55;19.47;57.47
65239;SHT30;51827;51.186;6.926;2023-12-20T01:03:56;19.46;57.52
65239;SHT30;51827;51.186;6.926;2023-12-20T01:04:56;19.46;57.54
65239;SHT30;51827;51.186;6.926;2023-12-20T01:05:56;19.47;57.53
65239;SHT30;51827;51.186;6.926;2023-12-20T01:06:56;19.47;57.52
65239;SHT30;51827;51.186;6.926;2023-12-20T01:07:57;19.46;57.60
65239;SHT30;51827;51.186;6.926;2023-12-20T01:08:57;19.45;57.57
65239;SHT30;51827;51.186;6.926;2023-12-20T01:09:57;19.46;57.57
65239;SHT30;51827;51.186;6.926;2023-12-20T01:10:57;19.46;57.60
65239;SHT30;51827;51.186;6.926;2023-12-20T01:11:58;19.46;57.52
65239;SHT30;51827;51.186;6.926;2023-12-20T01:12:58;19.46;57.54
65239;SHT30;51827;51.186;6.926;2023-12-20T01:13:58;19.46;57.54
65239;SHT30;51827;51.186;6.926;2023-12-20T01:14:58;19.46;57.58
65239;SHT30;51827;51.186;6.926;2023-12-20T01:15:59;19.47;57.54
65239;SHT30;51827;51.186;6.926;2023-12-20T01:16:59;19.46;57.54
65239;SHT30;51827;51.186;6.926;2023-12-20T01:17:59;19.46;57.56
65239;SHT30;51827;51.186;6.926;2023-12-20T01:18:59;19.47;57.58
65239;SHT30;51827;51.186;6.926;2023-12-20T01:20:00;19.46;57.55
65239;SHT30;51827;51.186;6.926;2023-12-20T01:21:03;19.47;57.55
65239;SHT30;51827;51.186;6.926;2023-12-20T01:22:04;19.46;57.58
65239;SHT30;51827;51.186;6.926;2023-12-20T01:23:04;19.47;57.58
65239;SHT30;51827;51.186;6.926;2023-12-20T01:24:04;19.49;57.55
65239;SHT30;51827;51.186;6.926;2023-12-20T01:25:05;19.47;57.56
65239;SHT30;51827;51.186;6.926;2023-12-20T01:26:05;19.43;57.58
65239;SHT30;51827;51.186;6.926;2023-12-20T01:27:05;19.45;57.64
65239;SHT30;51827;51.186;6.926;2023-12-20T01:28:05;19.43;57.63
65239;SHT30;51827;51.186;6.926;2023-12-20T01:29:06;19.47;57.61
65239;SHT30;51827;51.186;6.926;2023-12-20T01:30:06;19.46;57.55
65239;SHT30;51827;51.186;6.926;2023-12-20T01:31:07;19.46;57.55
65239;SHT30;51827;51.186;6.926;2023-12-20T01:32:07;19.47;57.58
65239;SHT30;51827;51.186;6.926;2023-12-20T01:33:07;19.47;57.54
65239;SHT30;51827;51.186;6.926;2023-12-20T01:34:07;19.46;57.57
65239;SHT30;51827;51.186;6.926;2023-12-20T01:35:08;19.45;57.57
65239;SHT30;51827;51.186;6.926;2023-12-20T01:36:08;19.46;57.57
65239;SHT30;51827;51.186;6.926;2023-12-20T01:37:08;19.46;57.60
65239;SHT30;51827;51.186;6.926;2023-12-20T01:38:09;19.46;57.58
65239;SHT30;51827;51.186;6.926;2023-12-20T01:39:09;19.45;57.56
65239;SHT30;51827;51.186;6.926;2023-12-20T01:40:10;19.45;57.58
65239;SHT30;51827;51.186;6.926;2023-12-20T01:41:10;19.46;57.60
65239;SHT30;51827;51.186;6.926;2023-12-20T01:42:10;19.45;57.60
65239;SHT30;51827;51.186;6.926;2023-12-20T01:43:10;19.47;57.62
65239;SHT30;51827;51.186;6.926;2023-12-20T01:44:11;19.47;57.62
65239;SHT30;51827;51.186;6.926;2023-12-20T01:45:11;19.47;57.57
65239;SHT30;51827;51.186;6.926;2023-12-20T01:46:12;19.47;57.60
65239;SHT30;51827;51.186;6.926;2023-12-20T01:47:12;19.49;57.54
65239;SHT30;51827;51.186;6.926;2023-12-20T01:48:13;19.47;57.58
65239;SHT30;51827;51.186;6.926;2023-12-20T01:49:15;19.46;57.54
65239;SHT30;51827;51.186;6.926;2023-12-20T01:50:15;19.45;57.58
65239;SHT30;51827;51.186;6.926;2023-12-20T01:51:16;19.49;57.59
65239;SHT30;51827;51.186;6.926;2023-12-20T01:52:16;19.47;57.60
65239;SHT30;51827;51.186;6.926;2023-12-20T01:53:19;19.47;57.57
65239;SHT30;51827;51.186;6.926;2023-12-20T01:54:20;19.46;57.58
65239;SHT30;51827;51.186;6.926;2023-12-20T01:55:21;19.49;57.56
65239;SHT30;51827;51.186;6.926;2023-12-20T01:56:21;19.47;57.59
65239;SHT30;51827;51.186;6.926;2023-12-20T01:57:22;19.46;57.63
65239;SHT30;51827;51.186;6.926;2023-12-20T01:58:22;19.45;57.61
65239;SHT30;51827;51.186;6.926;2023-12-20T01:59:23;19.46;57.60
65239;SHT30;51827;51.186;6.926;2023-12-20T02:00:23;19.46;57.60
65239;SHT30;51827;51.186;6.926;2023-12-20T02:01:24;19.47;57.58
65239;SHT30;51827;51.186;6.926;2023-12-20T02:02:26;19.47;57.57
65239;SHT30;51827;51.186;6.926;2023-12-20T02:03:27;19.47;57.56
65239;SHT30;51827;51.186;6.926;2023-12-20T02:04:27;19.49;57.58
65239;SHT30;51827;51.186;6.926;2023-12-20T02:05:30;19.46;57.55
65239;SHT30;51827;51.186;6.926;2023-12-20T02:06:30;19.49;57.56
65239;SHT30;51827;51.186;6.926;2023-12-20T02:07:31;19.46;57.60
65239;SHT30;51827;51.186;6.926;2023-12-20T02:08:31;19.47;57.56
65239;SHT30;51827;51.186;6.926;2023-12-20T02:09:31;19.46;57.63
65239;SHT30;51827;51.186;6.926;2023-12-20T02:10:32;19.46;57.61
65239;SHT30;51827;51.186;6.926;2023-12-20T02:11:32;19.46;57.65
65239;SHT30;51827;51.186;6.926;2023-12-20T02:12:33;19.47;57.60
65239;SHT30;51827;51.186;6.926;2023-12-20T02:13:33;19.46;57.62
65239;SHT30;51827;51.186;6.926;2023-12-20T02:14:33;19.47;57.58
65239;SHT30;51827;51.186;6.926;2023-12-20T02:15:34;19.45;57.62
65239;SHT30;51827;51.186;6.926;2023-12-20T02:16:34;19.47;57.61
65239;SHT30;51827;51.186;6.926;2023-12-20T02:17:35;19.45;57.64
65239;SHT30;51827;51.186;6.926;2023-12-20T02:18:35;19.47;57.63
65239;SHT30;51827;51.186;6.926;2023-12-20T02:19:36;19.46;57.58
65239;SHT30;51827;51.186;6.926;2023-12-20T02:20:36;19.46;57.56
65239;SHT30;51827;51.186;6.926;2023-12-20T02:21:36;19.47;57.57
65239;SHT30;51827;51.186;6.926;2023-12-20T02:22:36;19.49;57.58
65239;SHT30;51827;51.186;6.926;2023-12-20T02:23:36;19.45;57.58
65239;SHT30;51827;51.186;6.926;2023-12-20T02:24:37;19.47;57.59
65239;SHT30;51827;51.186;6.926;2023-12-20T02:25:38;19.45;57.63
65239;SHT30;51827;51.186;6.926;2023-12-20T02:26:38;19.46;57.63
65239;SHT30;51827;51.186;6.926;2023-12-20T02:27:39;19.46;57.62
65239;SHT30;51827;51.186;6.926;2023-12-20T02:28:39;19.46;57.60
65239;SHT30;51827;51.186;6.926;2023-12-20T02:29:40;19.46;57.60
65239;SHT30;51827;51.186;6.926;2023-12-20T02:30:40;19.47;57.59
65239;SHT30;51827;51.186;6.926;2023-12-20T02:31:40;19.49;57.62
65239;SHT30;51827;51.186;6.926;2023-12-20T02:32:40;19.45;57.61
65239;SHT30;51827;51.186;6.926;2023-12-20T02:33:41;19.45;57.56
65239;SHT30;51827;51.186;6.926;2023-12-20T02:34:41;19.46;57.56
65239;SHT30;51827;51.186;6.926;2023-12-20T02:35:41;19.46;57.56
65239;SHT30;51827;51.186;6.926;2023-12-20T02:36:41;19.46;57.58
65239;SHT30;51827;51.186;6.926;2023-12-20T02:37:41;19.47;57.60
65239;SHT30;51827;51.186;6.926;2023-12-20T02:38:42;19.46;57.57
65239;SHT30;51827;51.186;6.926;2023-12-20T02:39:42;19.46;57.58
65239;SHT30;51827;51.186;6.926;2023-12-20T02:40:42;19.46;57.58
65239;SHT30;51827;51.186;6.926;2023-12-20T02:41:42;19.46;57.57
65239;SHT30;51827;51.186;6.926;2023-12-20T02:42:43;19.47;57.56
65239;SHT30;51827;51.186;6.926;2023-12-20T02:43:43;19.46;57.55
65239;SHT30;51827;51.186;6.926;2023-12-20T02:44:43;19.46;57.59
65239;SHT30;51827;51.186;6.926;2023-12-20T02:45:43;19.45;57.63
65239;SHT30;51827;51.186;6.926;2023-12-20T02:46:44;19.46;57.57
65239;SHT30;51827;51.186;6.926;2023-12-20T02:47:44;19.45;57.55
65239;SHT30;51827;51.186;6.926;2023-12-20T02:48:44;19.49;57.54
65239;SHT30;51827;51.186;6.926;2023-12-20T02:49:44;19.49;57.55
65239;SHT30;51827;51.186;6.926;2023-12-20T02:50:46;19.47;57.56
65239;SHT30;51827;51.186;6.926;2023-12-20T02:51:47;19.47;57.55
65239;SHT30;51827;51.186;6.926;2023-12-20T02:52:47;19.47;57.54
65239;SHT30;51827;51.186;6.926;2023-12-20T02:53:47;19.45;57.50
65239;SHT30;51827;51.186;6.926;2023-12-20T02:54:48;19.47;57.55
65239;SHT30;51827;51.186;6.926;2023-12-20T02:55:48;19.47;57.54
65239;SHT30;51827;51.186;6.926;2023-12-20T02:56:48;19.46;57.54
65239;SHT30;51827;51.186;6.926;2023-12-20T02:57:48;19.49;57.52
65239;SHT30;51827;51.186;6.926;2023-12-20T02:58:49;19.49;57.53
65239;SHT30;51827;51.186;6.926;2023-12-20T02:59:49;19.47;57.50
65239;SHT30;51827;51.186;6.926;2023-12-20T03:00:49;19.47;57.51
65239;SHT30;51827;51.186;6.926;2023-12-20T03:01:50;19.46;57.50
65239;SHT30;51827;51.186;6.926;2023-12-20T03:02:50;19.49;57.48
65239;SHT30;51827;51.186;6.926;2023-12-20T03:03:51;19.47;57.48
65239;SHT30;51827;51.186;6.926;2023-12-20T03:04:51;19.47;57.51
65239;SHT30;51827;51.186;6.926;2023-12-20T03:05:51;19.46;57.53
65239;SHT30;51827;51.186;6.926;2023-12-20T03:06:51;19.46;57.54
65239;SHT30;51827;51.186;6.926;2023-12-20T03:07:52;19.46;57.56
65239;SHT30;51827;51.186;6.926;2023-12-20T03:08:52;19.47;57.51
65239;SHT30;51827;51.186;6.926;2023-12-20T03:09:52;19.45;57.56
65239;SHT30;51827;51.186;6.926;2023-12-20T03:10:53;19.46;57.51
65239;SHT30;51827;51.186;6.926;2023-12-20T03:11:53;19.47;57.52
65239;SHT30;51827;51.186;6.926;2023-12-20T03:12:53;19.46;57.53
65239;SHT30;51827;51.186;6.926;2023-12-20T03:13:54;19.47;57.52
65239;SHT30;51827;51.186;6.926;2023-12-20T03:14:54;19.46;57.55
65239;SHT30;51827;51.186;6.926;2023-12-20T03:15:54;19.46;57.51
65239;SHT30;51827;51.186;6.926;2023-12-20T03:16:54;19.47;57.51
65239;SHT30;51827;51.186;6.926;2023-12-20T03:17:55;19.47;57.56
65239;SHT30;51827;51.186;6.926;2023-12-20T03:18:55;19.46;57.55
65239;SHT30;51827;51.186;6.926;2023-12-20T03:19:55;19.46;57.51
65239;SHT30;51827;51.186;6.926;2023-12-20T03:20:55;19.49;57.50
65239;SHT30;51827;51.186;6.926;2023-12-20T03:21:55;19.46;57.50
65239;SHT30;51827;51.186;6.926;2023-12-20T03:22:56;19.47;57.49
65239;SHT30;51827;51.186;6.926;2023-12-20T03:23:56;19.49;57.49
65239;SHT30;51827;51.186;6.926;2023-12-20T03:24:56;19.47;57.55
65239;SHT30;51827;51.186;6.926;2023-12-20T03:25:56;19.47;57.50
65239;SHT30;51827;51.186;6.926;2023-12-20T03:26:57;19.47;57.51
65239;SHT30;51827;51.186;6.926;2023-12-20T03:27:57;19.46;57.49
65239;SHT30;51827;51.186;6.926;2023-12-20T03:28:57;19.49;57.50
65239;SHT30;51827;51.186;6.926;2023-12-20T03:29:57;19.47;57.49
65239;SHT30;51827;51.186;6.926;2023-12-20T03:30:58;19.47;57.48
65239;SHT30;51827;51.186;6.926;2023-12-20T03:31:58;19.47;57.47
65239;SHT30;51827;51.186;6.926;2023-12-20T03:32:58;19.49;57.51
65239;SHT30;51827;51.186;6.926;2023-12-20T03:33:58;19.46;57.48
65239;SHT30;51827;51.186;6.926;2023-12-20T03:34:58;19.47;57.47
65239;SHT30;51827;51.186;6.926;2023-12-20T03:35:59;19.47;57.52
65239;SHT30;51827;51.186;6.926;2023-12-20T03:36:59;19.46;57.51
65239;SHT30;51827;51.186;6.926;2023-12-20T03:37:59;19.46;57.52
65239;SHT30;51827;51.186;6.926;2023-12-20T03:39:00;19.46;57.51
65239;SHT30;51827;51.186;6.926;2023-12-20T03:40:00;19.47;57.50
65239;SHT30;51827;51.186;6.926;2023-12-20T03:41:00;19.45;57.54
65239;SHT30;51827;51.186;6.926;2023-12-20T03:42:01;19.46;57.53
65239;SHT30;51827;51.186;6.926;2023-12-20T03:43:01;19.45;57.52
65239;SHT30;51827;51.186;6.926;2023-12-20T03:44:01;19.46;57.49
65239;SHT30;51827;51.186;6.926;2023-12-20T03:45:01;19.46;57.51
65239;SHT30;51827;51.186;6.926;2023-12-20T03:46:03;19.50;57.53
65239;SHT30;51827;51.186;6.926;2023-12-20T03:47:03;19.47;57.49
65239;SHT30;51827;51.186;6.926;2023-12-20T03:48:04;19.45;57.51
65239;SHT30;51827;51.186;6.926;2023-12-20T03:49:04;19.47;57.50
65239;SHT30;51827;51.186;6.926;2023-12-20T03:50:05;19.49;57.52
65239;SHT30;51827;51.186;6.926;2023-12-20T03:51:05;19.49;57.47
65239;SHT30;51827;51.186;6.926;2023-12-20T03:52:05;19.47;57.52
65239;SHT30;51827;51.186;6.926;2023-12-20T03:53:06;19.47;57.54
65239;SHT30;51827;51.186;6.926;2023-12-20T03:54:06;19.46;57.51
65239;SHT30;51827;51.186;6.926;2023-12-20T03:55:06;19.47;57.48
65239;SHT30;51827;51.186;6.926;2023-12-20T03:56:06;19.46;57.50
65239;SHT30;51827;51.186;6.926;2023-12-20T03:57:07;19.47;57.53
65239;SHT30;51827;51.186;6.926;2023-12-20T03:58:07;19.46;57.54
65239;SHT30;51827;51.186;6.926;2023-12-20T03:59:07;19.45;57.52
65239;SHT30;51827;51.186;6.926;2023-12-20T04:00:08;19.46;57.54
65239;SHT30;51827;51.186;6.926;2023-12-20T04:01:11;19.46;57.53
65239;SHT30;51827;51.186;6.926;2023-12-20T04:02:11;19.46;57.48
65239;SHT30;51827;51.186;6.926;2023-12-20T04:03:12;19.46;57.49
65239;SHT30;51827;51.186;6.926;2023-12-20T04:04:13;19.46;57.47
65239;SHT30;51827;51.186;6.926;2023-12-20T04:05:13;19.45;57.53
65239;SHT30;51827;51.186;6.926;2023-12-20T04:06:18;19.46;57.47
65239;SHT30;51827;51.186;6.926;2023-12-20T04:07:18;19.46;57.47
65239;SHT30;51827;51.186;6.926;2023-12-20T04:08:18;19.49;57.48
65239;SHT30;51827;51.186;6.926;2023-12-20T04:09:18;19.46;57.45
65239;SHT30;51827;51.186;6.926;2023-12-20T04:10:19;19.46;57.44
65239;SHT30;51827;51.186;6.926;2023-12-20T04:11:19;19.47;57.44
65239;SHT30;51827;51.186;6.926;2023-12-20T04:12:19;19.47;57.46
65239;SHT30;51827;51.186;6.926;2023-12-20T04:13:19;19.46;57.45
65239;SHT30;51827;51.186;6.926;2023-12-20T04:14:20;19.49;57.51
65239;SHT30;51827;51.186;6.926;2023-12-20T04:15:20;19.47;57.45
65239;SHT30;51827;51.186;6.926;2023-12-20T04:16:20;19.46;57.49
65239;SHT30;51827;51.186;6.926;2023-12-20T04:17:20;19.47;57.45
65239;SHT30;51827;51.186;6.926;2023-12-20T04:18:21;19.50;57.45
65239;SHT30;51827;51.186;6.926;2023-12-20T04:19:21;19.47;57.49
65239;SHT30;51827;51.186;6.926;2023-12-20T04:20:21;19.47;57.46
65239;SHT30;51827;51.186;6.926;2023-12-20T04:21:21;19.45;57.48
65239;SHT30;51827;51.186;6.926;2023-12-20T04:22:22;19.46;57.46
65239;SHT30;51827;51.186;6.926;2023-12-20T04:23:22;19.47;57.49
65239;SHT30;51827;51.186;6.926;2023-12-20T04:24:22;19.46;57.55
65239;SHT30;51827;51.186;6.926;2023-12-20T04:25:22;19.47;57.56
65239;SHT30;51827;51.186;6.926;2023-12-20T04:26:23;19.46;57.52
65239;SHT30;51827;51.186;6.926;2023-12-20T04:27:23;19.47;57.53
65239;SHT30;51827;51.186;6.926;2023-12-20T04:28:23;19.47;57.53
65239;SHT30;51827;51.186;6.926;2023-12-20T04:29:23;19.47;57.53
65239;SHT30;51827;51.186;6.926;2023-12-20T04:30:24;19.47;57.50
65239;SHT30;51827;51.186;6.926;2023-12-20T04:31:24;19.47;57.53
65239;SHT30;51827;51.186;6.926;2023-12-20T04:32:24;19.49;57.47
65239;SHT30;51827;51.186;6.926;2023-12-20T04:33:24;19.50;57.49
65239;SHT30;51827;51.186;6.926;2023-12-20T04:34:25;19.47;57.49
65239;SHT30;51827;51.186;6.926;2023-12-20T04:35:25;19.49;57.47
65239;SHT30;51827;51.186;6.926;2023-12-20T04:36:25;19.47;57.50
65239;SHT30;51827;51.186;6.926;2023-12-20T04:37:25;19.47;57.52
65239;SHT30;51827;51.186;6.926;2023-12-20T04:38:26;19.49;57.49
65239;SHT30;51827;51.186;6.926;2023-12-20T04:39:26;19.50;57.50
65239;SHT30;51827;51.186;6.926;2023-12-20T04:40:26;19.47;57.47
65239;SHT30;51827;51.186;6.926;2023-12-20T04:41:26;19.50;57.43
65239;SHT30;51827;51.186;6.926;2023-12-20T04:42:27;19.50;57.50
65239;SHT30;51827;51.186;6.926;2023-12-20T04:43:27;19.50;57.50
65239;SHT30;51827;51.186;6.926;2023-12-20T04:44:27;19.47;57.49
65239;SHT30;51827;51.186;6.926;2023-12-20T04:45:27;19.50;57.46
65239;SHT30;51827;51.186;6.926;2023-12-20T04:46:27;19.49;57.48
65239;SHT30;51827;51.186;6.926;2023-12-20T04:47:28;19.50;57.46
65239;SHT30;51827;51.186;6.926;2023-12-20T04:48:28;19.50;57.46
65239;SHT30;51827;51.186;6.926;2023-12-20T04:49:28;19.50;57.43
65239;SHT30;51827;51.186;6.926;2023-12-20T04:50:29;19.50;57.41
65239;SHT30;51827;51.186;6.926;2023-12-20T04:51:29;19.50;57.44
65239;SHT30;51827;51.186;6.926;2023-12-20T04:52:29;19.49;57.44
65239;SHT30;51827;51.186;6.926;2023-12-20T04:53:29;19.52;57.41
65239;SHT30;51827;51.186;6.926;2023-12-20T04:54:29;19.47;57.44
65239;SHT30;51827;51.186;6.926;2023-12-20T04:55:30;19.49;57.42
65239;SHT30;51827;51.186;6.926;2023-12-20T04:56:30;19.47;57.40
65239;SHT30;51827;51.186;6.926;2023-12-20T04:57:30;19.49;57.40
65239;SHT30;51827;51.186;6.926;2023-12-20T04:58:30;19.49;57.42
65239;SHT30;51827;51.186;6.926;2023-12-20T04:59:31;19.52;57.39
65239;SHT30;51827;51.186;6.926;2023-12-20T05:00:31;19.50;57.41
65239;SHT30;51827;51.186;6.926;2023-12-20T05:01:31;19.47;57.43
65239;SHT30;51827;51.186;6.926;2023-12-20T05:02:31;19.50;57.43
65239;SHT30;51827;51.186;6.926;2023-12-20T05:03:32;19.49;57.43
65239;SHT30;51827;51.186;6.926;2023-12-20T05:04:32;19.47;57.39
65239;SHT30;51827;51.186;6.926;2023-12-20T05:05:33;19.50;57.36
65239;SHT30;51827;51.186;6.926;2023-12-20T05:06:33;19.50;57.40
65239;SHT30;51827;51.186;6.926;2023-12-20T05:07:33;19.49;57.39
65239;SHT30;51827;51.186;6.926;2023-12-20T05:08:34;19.49;57.42
65239;SHT30;51827;51.186;6.926;2023-12-20T05:09:34;19.50;57.39
65239;SHT30;51827;51.186;6.926;2023-12-20T05:10:34;19.49;57.37
65239;SHT30;51827;51.186;6.926;2023-12-20T05:11:34;19.47;57.38
65239;SHT30;51827;51.186;6.926;2023-12-20T05:12:35;19.49;57.36
65239;SHT30;51827;51.186;6.926;2023-12-20T05:13:35;19.50;57.33
65239;SHT30;51827;51.186;6.926;2023-12-20T05:14:35;19.50;57.33
65239;SHT30;51827;51.186;6.926;2023-12-20T05:15:35;19.49;57.36
65239;SHT30;51827;51.186;6.926;2023-12-20T05:16:36;19.53;57.36
65239;SHT30;51827;51.186;6.926;2023-12-20T05:17:36;19.47;57.34
65239;SHT30;51827;51.186;6.926;2023-12-20T05:18:36;19.50;57.35
65239;SHT30;51827;51.186;6.926;2023-12-20T05:19:36;19.50;57.33
65239;SHT30;51827;51.186;6.926;2023-12-20T05:20:37;19.49;57.32
65239;SHT30;51827;51.186;6.926;2023-12-20T05:21:37;19.50;57.31
65239;SHT30;51827;51.186;6.926;2023-12-20T05:22:37;19.50;57.32
65239;SHT30;51827;51.186;6.926;2023-12-20T05:23:37;19.50;57.30
65239;SHT30;51827;51.186;6.926;2023-12-20T05:24:38;19.50;57.32
65239;SHT30;51827;51.186;6.926;2023-12-20T05:25:38;19.49;57.32
65239;SHT30;51827;51.186;6.926;2023-12-20T05:26:38;19.50;57.31
65239;SHT30;51827;51.186;6.926;2023-12-20T05:27:38;19.50;57.31
65239;SHT30;51827;51.186;6.926;2023-12-20T05:28:38;19.50;57.27
65239;SHT30;51827;51.186;6.926;2023-12-20T05:29:39;19.49;57.26
65239;SHT30;51827;51.186;6.926;2023-12-20T05:30:39;19.50;57.28
65239;SHT30;51827;51.186;6.926;2023-12-20T05:31:39;19.49;57.31
65239;SHT30;51827;51.186;6.926;2023-12-20T05:32:40;19.50;57.29
65239;SHT30;51827;51.186;6.926;2023-12-20T05:33:40;19.52;57.28
65239;SHT30;51827;51.186;6.926;2023-12-20T05:34:40;19.49;57.28
65239;SHT30;51827;51.186;6.926;2023-12-20T05:35:40;19.47;57.32
65239;SHT30;51827;51.186;6.926;2023-12-20T05:36:40;19.49;57.26
65239;SHT30;51827;51.186;6.926;2023-12-20T05:37:41;19.50;57.27
65239;SHT30;51827;51.186;6.926;2023-12-20T05:38:41;19.47;57.24
65239;SHT30;51827;51.186;6.926;2023-12-20T05:39:42;19.50;57.26
65239;SHT30;51827;51.186;6.926;2023-12-20T05:40:42;19.50;57.26
65239;SHT30;51827;51.186;6.926;2023-12-20T05:41:42;19.52;57.24
65239;SHT30;51827;51.186;6.926;2023-12-20T05:42:42;19.53;57.24
65239;SHT30;51827;51.186;6.926;2023-12-20T05:43:43;19.49;57.26
65239;SHT30;51827;51.186;6.926;2023-12-20T05:44:43;19.50;57.22
65239;SHT30;51827;51.186;6.926;2023-12-20T05:45:43;19.49;57.24
65239;SHT30;51827;51.186;6.926;2023-12-20T05:46:43;19.52;57.24
65239;SHT30;51827;51.186;6.926;2023-12-20T05:47:44;19.52;57.21
65239;SHT30;51827;51.186;6.926;2023-12-20T05:48:44;19.49;57.22
65239;SHT30;51827;51.186;6.926;2023-12-20T05:49:45;19.50;57.18
65239;SHT30;51827;51.186;6.926;2023-12-20T05:50:45;19.52;57.20
65239;SHT30;51827;51.186;6.926;2023-12-20T05:51:45;19.52;57.20
65239;SHT30;51827;51.186;6.926;2023-12-20T05:52:45;19.50;57.16
65239;SHT30;51827;51.186;6.926;2023-12-20T05:53:46;19.50;57.18
65239;SHT30;51827;51.186;6.926;2023-12-20T05:54:46;19.52;57.18
65239;SHT30;51827;51.186;6.926;2023-12-20T05:55:46;19.52;57.19
65239;SHT30;51827;51.186;6.926;2023-12-20T05:56:46;19.52;57.16
65239;SHT30;51827;51.186;6.926;2023-12-20T05:57:47;19.52;57.20
65239;SHT30;51827;51.186;6.926;2023-12-20T05:58:47;19.52;57.15
65239;SHT30;51827;51.186;6.926;2023-12-20T05:59:47;19.52;57.21
65239;SHT30;51827;51.186;6.926;2023-12-20T06:00:47;19.50;57.18
65239;SHT30;51827;51.186;6.926;2023-12-20T06:01:48;19.47;57.21
65239;SHT30;51827;51.186;6.926;2023-12-20T06:02:48;19.50;57.19
65239;SHT30;51827;51.186;6.926;2023-12-20T06:03:48;19.50;57.15
65239;SHT30;51827;51.186;6.926;2023-12-20T06:04:48;19.49;57.19
65239;SHT30;51827;51.186;6.926;2023-12-20T06:05:49;19.52;57.19
65239;SHT30;51827;51.186;6.926;2023-12-20T06:06:49;19.50;57.18
65239;SHT30;51827;51.186;6.926;2023-12-20T06:07:49;19.50;57.19
65239;SHT30;51827;51.186;6.926;2023-12-20T06:08:49;19.52;57.15
65239;SHT30;51827;51.186;6.926;2023-12-20T06:09:50;19.50;57.13
65239;SHT30;51827;51.186;6.926;2023-12-20T06:10:50;19.52;57.13
65239;SHT30;51827;51.186;6.926;2023-12-20T06:11:50;19.50;57.13
65239;SHT30;51827;51.186;6.926;2023-12-20T06:12:50;19.49;57.14
65239;SHT30;51827;51.186;6.926;2023-12-20T06:13:51;19.53;57.12
65239;SHT30;51827;51.186;6.926;2023-12-20T06:14:51;19.52;57.14
65239;SHT30;51827;51.186;6.926;2023-12-20T06:15:51;19.49;57.13
65239;SHT30;51827;51.186;6.926;2023-12-20T06:16:51;19.52;57.12
65239;SHT30;51827;51.186;6.926;2023-12-20T06:17:52;19.52;57.14
65239;SHT30;51827;51.186;6.926;2023-12-20T06:18:52;19.52;57.12
65239;SHT30;51827;51.186;6.926;2023-12-20T06:19:52;19.50;57.10
65239;SHT30;51827;51.186;6.926;2023-12-20T06:20:52;19.52;57.07